Time;durP1;ratioP1;P1;durP2;ratioP2;P2;SDS_P1;SDS_P2;PMS_P1;PMS_P2;Temp;Humidity;BMP_temperature;BMP_pressure;BME280_temperature;BME280_humidity;BME280_pressure;Samples;Min_cycle;Max_cycle;Signal;HPM_P1;HPM_P2
2022/06/30 00:02:00;;;;;;;5.45;2.50;;;23.50;96.50;;;;;;5030836;28;20215;-68
2022/06/30 00:04:26;;;;;;;2.40;2.30;;;23.40;96.60;;;;;;5045683;28;20780;-68
2022/06/30 00:06:54;;;;;;;2.45;2.33;;;23.40;96.60;;;;;;5037266;28;20205;-68
2022/06/30 00:09:21;;;;;;;2.60;2.40;;;23.40;96.70;;;;;;5030774;28;20308;-68
2022/06/30 00:11:49;;;;;;;2.75;2.55;;;23.30;96.80;;;;;;5038656;28;20211;-68
2022/06/30 00:14:16;;;;;;;3.05;2.70;;;23.30;97.00;;;;;;5045321;28;20675;-68
2022/06/30 00:16:43;;;;;;;2.80;2.60;;;23.30;97.20;;;;;;5041260;28;20204;-68
2022/06/30 00:19:10;;;;;;;3.13;2.42;;;23.30;97.40;;;;;;5049831;28;20686;-68
2022/06/30 00:21:36;;;;;;;3.33;2.30;;;23.20;97.60;;;;;;5050105;28;20211;-69
2022/06/30 00:24:04;;;;;;;3.65;2.55;;;23.20;97.80;;;;;;5050377;28;20586;-69
2022/06/30 00:26:31;;;;;;;2.85;2.55;;;23.20;98.00;;;;;;5041022;28;20706;-69
2022/06/30 00:28:59;;;;;;;2.85;2.50;;;23.20;98.20;;;;;;5029977;28;20209;-69
2022/06/30 00:31:25;;;;;;;3.42;2.60;;;23.20;98.40;;;;;;5031222;28;20208;-68
2022/06/30 00:33:52;;;;;;;3.80;2.70;;;23.10;98.60;;;;;;5030225;28;20216;-67
2022/06/30 00:36:19;;;;;;;4.88;2.47;;;23.10;99.00;;;;;;5029920;28;20307;-67
2022/06/30 00:38:46;;;;;;;3.58;2.80;;;23.10;99.20;;;;;;5032955;28;20255;-67
2022/06/30 00:41:13;;;;;;;4.10;2.97;;;23.10;99.40;;;;;;5042194;28;20685;-67
2022/06/30 00:43:44;;;;;;;6.15;2.63;;;23.10;99.60;;;;;;5029682;28;20693;-67
2022/06/30 00:46:12;;;;;;;5.30;2.88;;;23.10;99.70;;;;;;5044295;28;20587;-68
2022/06/30 00:48:39;;;;;;;3.42;3.10;;;23.10;99.90;;;;;;5049819;28;20706;-68
2022/06/30 00:51:06;;;;;;;4.75;3.10;;;23.00;99.90;;;;;;5036510;28;20500;-68
2022/06/30 00:53:35;;;;;;;4.53;3.15;;;23.00;99.90;;;;;;5029990;28;20216;-68
2022/06/30 00:56:07;;;;;;;3.00;2.80;;;23.00;99.90;;;;;;5029183;28;20211;-68
2022/06/30 00:58:38;;;;;;;3.38;2.90;;;23.00;99.90;;;;;;5029787;28;20227;-68
2022/06/30 01:01:08;;;;;;;4.05;2.92;;;22.90;99.90;;;;;;5047779;28;20207;-68
2022/06/30 01:03:37;;;;;;;4.88;2.80;;;22.80;99.90;;;;;;5049110;28;20201;-68
2022/06/30 01:06:07;;;;;;;3.63;3.00;;;22.90;99.90;;;;;;5049135;28;20236;-67
2022/06/30 01:08:34;;;;;;;3.70;2.70;;;22.80;99.90;;;;;;5048810;28;20230;-67
2022/06/30 01:13:47;;;;;;;5.05;2.50;;;22.80;99.90;;;;;;5036236;28;20231;-68
2022/06/30 01:16:14;;;;;;;4.72;2.88;;;22.80;99.90;;;;;;5029814;28;20216;-68
2022/06/30 01:18:42;;;;;;;4.07;3.08;;;22.80;99.90;;;;;;5029048;28;20224;-68
2022/06/30 01:21:09;;;;;;;3.67;3.00;;;22.80;99.90;;;;;;5028892;28;20208;-68
2022/06/30 01:23:37;;;;;;;4.20;3.17;;;22.80;99.90;;;;;;5048318;28;20207;-67
2022/06/30 01:26:07;;;;;;;3.13;2.80;;;22.90;99.90;;;;;;5049033;28;20214;-68
2022/06/30 01:28:34;;;;;;;4.90;3.00;;;22.90;99.90;;;;;;5048984;28;20377;-68
2022/06/30 01:31:00;;;;;;;4.85;3.15;;;22.90;99.90;;;;;;5048691;28;20703;-68
2022/06/30 01:33:27;;;;;;;3.05;2.85;;;22.90;99.90;;;;;;5033853;28;20220;-67
2022/06/30 01:35:55;;;;;;;3.28;3.03;;;22.90;99.90;;;;;;5028723;28;20217;-68
2022/06/30 01:38:21;;;;;;;4.10;2.80;;;22.90;99.90;;;;;;5029075;28;20228;-68
2022/06/30 01:40:50;;;;;;;3.08;2.78;;;22.90;99.90;;;;;;5030407;28;20216;-68
2022/06/30 01:43:17;;;;;;;4.15;3.10;;;22.90;99.90;;;;;;5041198;28;20205;-68
2022/06/30 01:45:43;;;;;;;4.57;3.05;;;22.90;99.90;;;;;;5028831;28;20209;-68
2022/06/30 01:48:10;;;;;;;3.80;2.70;;;22.90;99.90;;;;;;5028551;28;20738;-68
2022/06/30 01:50:37;;;;;;;4.25;2.90;;;22.90;99.90;;;;;;5028395;28;20208;-68
2022/06/30 01:53:05;;;;;;;4.15;3.33;;;22.90;99.90;;;;;;5042369;28;20212;-68
2022/06/30 01:55:31;;;;;;;4.90;3.03;;;22.90;99.90;;;;;;5048571;28;20291;-67
2022/06/30 01:58:00;;;;;;;2.72;2.63;;;22.90;99.90;;;;;;5030367;28;20205;-68
2022/06/30 02:00:28;;;;;;;6.07;3.08;;;22.90;99.90;;;;;;5028175;28;20331;-67
2022/06/30 02:02:56;;;;;;;3.55;3.00;;;22.90;99.90;;;;;;5040969;28;20203;-68
2022/06/30 02:05:23;;;;;;;6.22;3.35;;;22.90;99.90;;;;;;5047976;28;20694;-67
2022/06/30 02:07:50;;;;;;;3.70;3.40;;;22.90;99.90;;;;;;5047679;28;20674;-67
2022/06/30 02:10:21;;;;;;;6.25;3.60;;;22.90;99.90;;;;;;5047924;28;20564;-68
2022/06/30 02:12:49;;;;;;;3.60;3.20;;;22.80;99.90;;;;;;5047449;28;20203;-70
2022/06/30 02:15:21;;;;;;;4.00;3.05;;;22.90;99.90;;;;;;5048296;28;20224;-70
2022/06/30 02:17:51;;;;;;;5.30;3.17;;;22.80;99.90;;;;;;5035929;28;20224;-70
2022/06/30 02:20:21;;;;;;;4.20;3.45;;;22.80;99.90;;;;;;5028084;28;20229;-68
2022/06/30 02:22:50;;;;;;;5.20;3.00;;;22.70;99.90;;;;;;5039573;28;20279;-68
2022/06/30 02:25:16;;;;;;;4.10;3.00;;;22.70;99.90;;;;;;5047730;28;20239;-68
2022/06/30 02:27:43;;;;;;;3.85;3.33;;;22.70;99.90;;;;;;5048138;28;20208;-68
2022/06/30 02:30:11;;;;;;;6.32;3.30;;;22.70;99.90;;;;;;5040751;28;20240;-70
2022/06/30 02:32:39;;;;;;;3.67;3.30;;;22.70;99.90;;;;;;5037316;28;20218;-70
2022/06/30 02:35:07;;;;;;;8.43;2.88;;;22.70;99.90;;;;;;5045457;28;20943;-69
2022/06/30 02:37:34;;;;;;;5.60;3.53;;;22.60;99.90;;;;;;5044076;28;20208;-70
2022/06/30 02:40:01;;;;;;;3.20;2.95;;;22.70;99.90;;;;;;5034189;28;20235;-69
2022/06/30 02:42:28;;;;;;;4.28;3.35;;;22.70;99.90;;;;;;5026522;28;20585;-70
2022/06/30 02:44:55;;;;;;;3.47;3.17;;;22.70;99.90;;;;;;5044438;28;20228;-69
2022/06/30 02:47:22;;;;;;;3.20;2.92;;;22.70;99.90;;;;;;5045834;28;20211;-69
2022/06/30 02:49:50;;;;;;;5.25;3.40;;;22.70;99.90;;;;;;5045809;28;20648;-70
2022/06/30 02:52:17;;;;;;;3.60;3.28;;;22.70;99.90;;;;;;5039876;28;20213;-70
2022/06/30 02:54:44;;;;;;;3.67;2.60;;;22.70;99.90;;;;;;5036186;28;20323;-70
2022/06/30 02:57:11;;;;;;;8.35;3.60;;;22.70;99.90;;;;;;5025449;28;20219;-70
2022/06/30 02:59:37;;;;;;;4.00;2.92;;;22.70;99.90;;;;;;5026590;28;20224;-70
2022/06/30 03:02:05;;;;;;;4.40;3.42;;;22.70;99.90;;;;;;5045128;28;20199;-70
2022/06/30 03:04:32;;;;;;;3.40;3.10;;;22.70;99.90;;;;;;5045752;28;20204;-70
2022/06/30 03:07:00;;;;;;;3.85;2.70;;;22.70;99.90;;;;;;5035176;28;20205;-69
2022/06/30 03:09:27;;;;;;;5.28;3.05;;;22.70;99.90;;;;;;5033710;28;20208;-68
2022/06/30 03:11:54;;;;;;;3.45;3.15;;;22.70;99.90;;;;;;5030758;28;20528;-69
2022/06/30 03:14:20;;;;;;;3.60;3.30;;;22.70;99.90;;;;;;5042496;28;20207;-69
2022/06/30 03:16:47;;;;;;;5.22;3.30;;;22.70;99.90;;;;;;5045921;28;20215;-69
2022/06/30 03:19:14;;;;;;;4.55;3.42;;;22.70;99.90;;;;;;5045948;28;20725;-69
2022/06/30 03:21:41;;;;;;;3.05;2.83;;;22.70;99.90;;;;;;5032678;28;20215;-70
2022/06/30 03:24:09;;;;;;;3.90;3.13;;;22.70;99.90;;;;;;5025762;28;20209;-71
2022/06/30 03:26:37;;;;;;;3.72;3.08;;;22.60;99.90;;;;;;5029501;28;20235;-69
2022/06/30 03:29:04;;;;;;;4.88;3.38;;;22.60;99.90;;;;;;5026378;28;20212;-69
2022/06/30 03:31:30;;;;;;;3.55;3.17;;;22.60;99.90;;;;;;5027114;28;20201;-69
2022/06/30 03:33:57;;;;;;;5.97;3.50;;;22.60;99.90;;;;;;5033565;28;20212;-69
2022/06/30 03:36:24;;;;;;;7.07;3.75;;;22.60;99.90;;;;;;5046664;28;20219;-69
2022/06/30 03:38:51;;;;;;;3.60;3.30;;;22.60;99.90;;;;;;5047184;28;20215;-69
2022/06/30 03:41:19;;;;;;;5.45;3.50;;;22.60;99.90;;;;;;5047016;28;20200;-70
2022/06/30 03:43:46;;;;;;;3.83;3.38;;;22.60;99.90;;;;;;5046814;28;20663;-69
2022/06/30 03:46:13;;;;;;;7.40;3.60;;;22.60;99.90;;;;;;5046861;28;20209;-69
2022/06/30 03:48:41;;;;;;;6.75;3.20;;;22.60;99.90;;;;;;5043068;28;20205;-69
2022/06/30 03:51:08;;;;;;;5.00;3.53;;;22.60;99.90;;;;;;5026720;28;20255;-69
2022/06/30 03:53:34;;;;;;;4.78;3.00;;;22.50;99.90;;;;;;5027280;28;20217;-69
2022/06/30 03:56:01;;;;;;;5.80;3.50;;;22.60;99.90;;;;;;5026795;28;20205;-69
2022/06/30 03:58:29;;;;;;;3.45;3.15;;;22.60;99.90;;;;;;5026954;28;20204;-69
2022/06/30 04:00:56;;;;;;;5.85;3.47;;;22.70;99.90;;;;;;5027037;28;20229;-69
2022/06/30 04:03:23;;;;;;;6.82;3.72;;;22.60;99.90;;;;;;5036256;28;20673;-69
2022/06/30 04:05:50;;;;;;;4.45;3.17;;;22.70;99.90;;;;;;5046456;28;20721;-69
2022/06/30 04:08:16;;;;;;;4.90;3.58;;;22.70;99.90;;;;;;5049594;28;20666;-70
2022/06/30 04:10:43;;;;;;;3.72;3.30;;;22.70;99.90;;;;;;5050539;28;20304;-69
2022/06/30 04:13:10;;;;;;;3.60;3.08;;;22.70;99.90;;;;;;5049971;28;20208;-69
2022/06/30 04:15:38;;;;;;;4.85;3.10;;;22.70;99.90;;;;;;5050304;28;20214;-69
2022/06/30 04:18:05;;;;;;;3.67;3.22;;;22.70;99.90;;;;;;5049882;28;20240;-69
2022/06/30 04:20:32;;;;;;;3.72;3.40;;;22.80;99.90;;;;;;5049719;28;20712;-69
2022/06/30 04:22:59;;;;;;;4.93;2.95;;;22.70;99.90;;;;;;5039820;28;20209;-69
2022/06/30 04:25:25;;;;;;;6.45;3.70;;;22.70;99.90;;;;;;5030059;28;20693;-69
2022/06/30 04:27:54;;;;;;;4.90;3.53;;;22.70;99.90;;;;;;5029649;28;20583;-69
2022/06/30 04:33:03;;;;;;;3.53;3.33;;;22.70;99.90;;;;;;5030508;28;20208;-69
2022/06/30 04:35:30;;;;;;;5.00;3.17;;;22.60;99.90;;;;;;5030081;28;20215;-70
2022/06/30 04:37:57;;;;;;;5.55;2.95;;;22.60;99.90;;;;;;5029900;28;20205;-70
2022/06/30 04:43:09;;;;;;;5.85;3.47;;;22.70;99.90;;;;;;5034132;28;20265;-69
2022/06/30 04:45:36;;;;;;;6.45;3.65;;;22.70;99.90;;;;;;5039798;28;20205;-69
2022/06/30 04:48:05;;;;;;;4.57;3.42;;;22.70;99.90;;;;;;5029634;28;20205;-69
2022/06/30 04:50:32;;;;;;;7.97;3.58;;;22.70;99.90;;;;;;5029909;28;20209;-69
2022/06/30 04:52:59;;;;;;;3.50;3.00;;;22.80;99.90;;;;;;5036427;28;20210;-69
2022/06/30 04:55:26;;;;;;;5.68;3.42;;;22.80;99.90;;;;;;5049743;28;20212;-70
2022/06/30 04:57:53;;;;;;;10.60;3.58;;;22.90;99.90;;;;;;5049606;28;20207;-69
2022/06/30 05:00:19;;;;;;;4.20;3.30;;;22.90;99.90;;;;;;5049241;28;20239;-69
2022/06/30 05:02:46;;;;;;;3.13;2.90;;;23.00;99.90;;;;;;5049542;28;20671;-69
2022/06/30 05:05:14;;;;;;;4.68;2.90;;;23.00;99.90;;;;;;5049421;28;20200;-69
2022/06/30 05:07:41;;;;;;;4.60;3.20;;;22.90;99.90;;;;;;5049292;28;20208;-70
2022/06/30 05:10:09;;;;;;;3.53;3.22;;;22.90;99.90;;;;;;5048144;28;20299;-69
2022/06/30 05:12:35;;;;;;;5.85;3.20;;;22.90;99.90;;;;;;5049089;28;20208;-69
2022/06/30 05:15:02;;;;;;;5.25;3.40;;;22.80;99.90;;;;;;5029303;28;20205;-69
2022/06/30 05:17:29;;;;;;;5.15;3.33;;;22.90;99.90;;;;;;5028801;28;20302;-69
2022/06/30 05:19:56;;;;;;;10.57;3.47;;;22.80;99.90;;;;;;5032082;28;20240;-70
2022/06/30 05:22:24;;;;;;;4.82;3.47;;;22.80;99.90;;;;;;5028979;28;20216;-69
2022/06/30 05:27:35;;;;;;;6.03;3.40;;;22.80;99.90;;;;;;5044681;28;20938;-69
2022/06/30 05:30:02;;;;;;;9.85;4.50;;;22.80;99.90;;;;;;5048745;28;20606;-69
2022/06/30 05:32:28;;;;;;;7.10;3.92;;;22.80;99.90;;;;;;5049005;28;20306;-70
2022/06/30 05:34:55;;;;;;;8.38;3.83;;;22.80;99.90;;;;;;5048536;28;20219;-69
2022/06/30 05:37:23;;;;;;;6.72;3.63;;;22.80;99.90;;;;;;5048666;28;20211;-69
2022/06/30 05:39:51;;;;;;;9.90;3.60;;;22.80;99.90;;;;;;5048625;28;20224;-69
2022/06/30 05:42:17;;;;;;;6.07;3.63;;;22.90;99.90;;;;;;5048672;28;20236;-70
2022/06/30 05:44:45;;;;;;;4.18;3.50;;;22.90;99.90;;;;;;5048440;28;20212;-70
2022/06/30 05:47:13;;;;;;;4.25;3.70;;;22.90;99.90;;;;;;5048657;28;20627;-69
2022/06/30 05:49:39;;;;;;;4.75;3.47;;;22.90;99.90;;;;;;5048211;28;20204;-70
2022/06/30 05:52:07;;;;;;;8.68;3.53;;;23.00;99.90;;;;;;5048066;28;20612;-69
2022/06/30 05:54:35;;;;;;;9.75;4.22;;;22.90;99.90;;;;;;5048458;28;20204;-69
2022/06/30 05:57:01;;;;;;;9.68;4.05;;;22.90;99.90;;;;;;5048048;28;20314;-70
2022/06/30 05:59:30;;;;;;;6.13;3.55;;;22.90;99.90;;;;;;5048473;28;20579;-69
2022/06/30 06:01:57;;;;;;;4.00;3.60;;;22.80;99.90;;;;;;5048061;28;20285;-69
2022/06/30 06:04:24;;;;;;;18.17;4.00;;;22.90;99.90;;;;;;5048243;28;20211;-70
2022/06/30 06:06:50;;;;;;;5.75;3.80;;;22.90;99.90;;;;;;5047647;28;20683;-69
2022/06/30 06:09:17;;;;;;;4.47;3.80;;;23.00;99.90;;;;;;5047989;28;20669;-69
2022/06/30 06:11:46;;;;;;;4.80;4.35;;;23.10;99.90;;;;;;5047656;28;20204;-69
2022/06/30 06:14:13;;;;;;;4.20;3.83;;;23.10;99.90;;;;;;5045647;28;20212;-69
2022/06/30 06:16:39;;;;;;;5.28;3.90;;;23.20;99.90;;;;;;5028159;28;20593;-70
2022/06/30 06:19:06;;;;;;;5.97;3.60;;;23.20;99.90;;;;;;5028088;28;20219;-69
2022/06/30 06:21:36;;;;;;;3.78;3.45;;;23.10;99.90;;;;;;5027847;28;20240;-69
2022/06/30 06:24:03;;;;;;;4.30;3.90;;;23.20;99.90;;;;;;5045456;28;20545;-69
2022/06/30 06:26:29;;;;;;;6.20;4.70;;;23.20;99.90;;;;;;5047995;28;20208;-69
2022/06/30 06:29:06;;;;;;;4.28;3.85;;;23.20;99.90;;;;;;5047279;28;20208;-69
2022/06/30 06:31:34;;;;;;;5.90;3.92;;;23.10;99.90;;;;;;5047758;28;20223;-69
2022/06/30 06:34:01;;;;;;;4.97;3.88;;;23.20;99.90;;;;;;5047870;28;20208;-70
2022/06/30 06:36:28;;;;;;;4.88;4.00;;;23.20;99.90;;;;;;5047696;28;20204;-69
2022/06/30 06:38:55;;;;;;;4.40;3.97;;;23.10;99.90;;;;;;5047357;28;20673;-69
2022/06/30 06:41:22;;;;;;;4.22;3.67;;;23.10;99.90;;;;;;5047921;28;20232;-69
2022/06/30 06:43:48;;;;;;;4.70;3.90;;;23.10;99.90;;;;;;5047865;28;20211;-69
2022/06/30 06:46:17;;;;;;;3.92;3.53;;;23.10;99.90;;;;;;5034172;28;20223;-69
2022/06/30 06:48:44;;;;;;;4.85;3.90;;;23.10;99.90;;;;;;5028104;28;20208;-69
2022/06/30 06:51:11;;;;;;;5.30;3.65;;;23.10;99.90;;;;;;5027591;28;20204;-69
2022/06/30 06:53:38;;;;;;;5.18;4.25;;;23.20;99.90;;;;;;5028002;28;20228;-69
2022/06/30 06:56:06;;;;;;;7.82;3.97;;;23.20;99.90;;;;;;5027178;28;20215;-69
2022/06/30 06:58:33;;;;;;;4.15;3.45;;;23.30;99.90;;;;;;5027413;28;20683;-69
2022/06/30 07:01:00;;;;;;;5.50;4.00;;;23.40;99.90;;;;;;5027643;28;20287;-69
2022/06/30 07:03:29;;;;;;;4.00;3.63;;;23.40;99.90;;;;;;5027309;28;20240;-69
2022/06/30 07:05:56;;;;;;;5.35;3.92;;;23.50;99.90;;;;;;5027355;28;20205;-71
2022/06/30 07:08:23;;;;;;;4.55;3.78;;;23.50;99.90;;;;;;5027845;28;20255;-70
2022/06/30 07:10:50;;;;;;;4.43;3.78;;;23.60;99.90;;;;;;5029105;28;20623;-69
2022/06/30 07:13:17;;;;;;;5.00;3.88;;;23.60;99.90;;;;;;5041703;28;20215;-70
2022/06/30 07:15:44;;;;;;;5.65;3.80;;;23.70;99.90;;;;;;5027410;28;20209;-69
2022/06/30 07:18:11;;;;;;;7.72;4.10;;;23.70;99.90;;;;;;5027231;28;20221;-70
2022/06/30 07:20:39;;;;;;;6.85;3.97;;;23.80;99.90;;;;;;5034706;28;20235;-69
2022/06/30 07:23:06;;;;;;;4.47;3.80;;;23.80;99.90;;;;;;5027018;28;20678;-69
2022/06/30 07:25:33;;;;;;;6.03;4.25;;;23.80;99.90;;;;;;5027493;28;20332;-69
2022/06/30 07:27:59;;;;;;;6.05;3.80;;;23.80;99.90;;;;;;5026945;28;20215;-70
2022/06/30 07:30:26;;;;;;;4.60;3.90;;;23.90;99.90;;;;;;5040631;28;20235;-70
2022/06/30 07:32:53;;;;;;;5.68;4.38;;;23.80;99.90;;;;;;5046688;28;20208;-69
2022/06/30 07:35:20;;;;;;;7.47;4.30;;;23.90;99.90;;;;;;5047011;28;20212;-70
2022/06/30 07:37:48;;;;;;;6.07;4.28;;;24.00;99.90;;;;;;5046769;28;20204;-69
2022/06/30 07:40:15;;;;;;;7.15;4.30;;;24.00;99.90;;;;;;5046670;28;20208;-70
2022/06/30 07:42:43;;;;;;;4.65;4.25;;;24.10;99.90;;;;;;5050472;28;20631;-70
2022/06/30 07:45:11;;;;;;;4.53;4.00;;;24.10;99.90;;;;;;5050839;28;20207;-69
2022/06/30 07:47:40;;;;;;;5.60;4.28;;;24.20;99.90;;;;;;5047970;28;20201;-70
2022/06/30 07:50:07;;;;;;;7.53;4.10;;;24.20;99.90;;;;;;5030612;28;20502;-69
2022/06/30 07:52:34;;;;;;;5.13;4.00;;;24.30;99.90;;;;;;5030405;28;20231;-70
2022/06/30 07:55:04;;;;;;;4.15;3.90;;;24.30;99.90;;;;;;5030623;28;20212;-69
2022/06/30 07:57:31;;;;;;;11.20;4.47;;;24.40;99.90;;;;;;5030564;28;20593;-69
2022/06/30 07:59:57;;;;;;;6.70;4.63;;;24.50;99.90;;;;;;5030440;28;20424;-70
2022/06/30 08:02:24;;;;;;;5.13;4.60;;;24.50;99.90;;;;;;5030025;28;20236;-70
2022/06/30 08:04:51;;;;;;;4.57;4.15;;;24.50;99.90;;;;;;5030148;28;20204;-70
2022/06/30 08:07:18;;;;;;;14.25;4.75;;;24.40;99.90;;;;;;5033464;28;20569;-70
2022/06/30 08:09:45;;;;;;;4.85;4.43;;;24.40;99.90;;;;;;5030620;28;20218;-70
2022/06/30 08:12:13;;;;;;;6.47;4.78;;;24.40;99.90;;;;;;5030367;28;20205;-69
2022/06/30 08:14:40;;;;;;;8.43;4.97;;;24.40;99.90;;;;;;5047178;28;20663;-70
2022/06/30 08:17:07;;;;;;;5.07;4.43;;;24.40;99.90;;;;;;5049510;28;20809;-70
2022/06/30 08:19:34;;;;;;;7.45;4.35;;;24.40;99.90;;;;;;5049585;28;20980;-70
2022/06/30 08:22:01;;;;;;;7.82;4.90;;;24.40;99.90;;;;;;5049929;28;20231;-70
2022/06/30 08:24:28;;;;;;;7.30;4.57;;;24.50;99.90;;;;;;5050193;28;20212;-70
2022/06/30 08:26:55;;;;;;;5.80;4.70;;;24.50;99.90;;;;;;5049861;28;20654;-69
2022/06/30 08:29:23;;;;;;;4.70;4.25;;;24.50;99.90;;;;;;5049889;28;20230;-69
2022/06/30 08:31:50;;;;;;;5.78;4.13;;;24.60;99.90;;;;;;5049837;28;20217;-70
2022/06/30 08:34:16;;;;;;;7.97;4.75;;;24.70;99.90;;;;;;5049752;28;20211;-70
2022/06/30 08:36:43;;;;;;;4.97;4.57;;;24.70;99.90;;;;;;5049660;28;20580;-70
2022/06/30 08:42:02;;;;;;;4.35;4.00;;;24.70;99.90;;;;;;5049738;28;20200;-70
2022/06/30 08:42:02;;;;;;;18.70;5.90;;;24.70;99.90;;;;;;5049477;28;20223;-69
2022/06/30 08:44:33;;;;;;;8.50;4.40;;;24.70;99.90;;;;;;5041673;28;20212;-70
2022/06/30 08:47:00;;;;;;;7.72;4.90;;;24.70;99.90;;;;;;5029825;28;20728;-69
2022/06/30 08:49:27;;;;;;;5.18;4.57;;;24.70;99.90;;;;;;5029747;28;20243;-70
2022/06/30 08:51:56;;;;;;;11.27;5.03;;;24.70;99.90;;;;;;5028932;28;20830;-70
2022/06/30 08:54:25;;;;;;;9.35;4.97;;;24.70;99.90;;;;;;5029005;28;20208;-70
2022/06/30 08:56:54;;;;;;;4.90;4.47;;;24.70;99.90;;;;;;5029399;28;20308;-69
2022/06/30 08:59:22;;;;;;;8.30;5.18;;;24.80;99.90;;;;;;5029307;28;20205;-69
2022/06/30 09:01:54;;;;;;;6.07;5.47;;;24.80;99.90;;;;;;5029586;28;20225;-69
2022/06/30 09:04:21;;;;;;;6.97;4.22;;;24.90;99.90;;;;;;5029324;28;20243;-70
2022/06/30 09:06:47;;;;;;;4.60;3.95;;;25.00;99.90;;;;;;5028902;28;20690;-70
2022/06/30 09:09:14;;;;;;;5.15;4.75;;;25.10;99.90;;;;;;5029320;28;20215;-70
2022/06/30 09:11:46;;;;;;;4.70;4.25;;;25.20;99.90;;;;;;5037199;28;20212;-70
2022/06/30 09:14:30;;;;;;;4.53;4.13;;;25.20;99.90;;;;;;5049243;28;20212;-70
2022/06/30 09:16:59;;;;;;;5.53;4.60;;;25.30;99.90;;;;;;5029112;28;20232;-70
2022/06/30 09:19:26;;;;;;;4.43;4.07;;;25.30;99.90;;;;;;5029087;28;20216;-70
2022/06/30 09:22:04;;;;;;;4.45;4.05;;;25.30;99.90;;;;;;5029028;28;20236;-70
2022/06/30 09:24:30;;;;;;;11.95;4.30;;;25.30;99.90;;;;;;5029169;28;20203;-70
2022/06/30 09:27:10;;;;;;;4.20;3.90;;;25.40;99.90;;;;;;5038819;28;20677;-70
2022/06/30 09:29:49;;;;;;;4.45;4.15;;;25.50;99.90;;;;;;5048292;28;20227;-70
2022/06/30 09:32:18;;;;;;;4.57;4.28;;;25.60;99.90;;;;;;5049038;28;20310;-70
2022/06/30 09:34:45;;;;;;;5.10;4.68;;;25.60;99.90;;;;;;5048506;28;20204;-70
2022/06/30 09:37:17;;;;;;;7.00;5.50;;;25.70;99.90;;;;;;5048348;28;20216;-70
2022/06/30 09:39:44;;;;;;;8.55;5.38;;;25.80;99.90;;;;;;5048567;28;21029;-70
2022/06/30 09:42:12;;;;;;;7.05;5.35;;;25.90;99.90;;;;;;5048357;28;20289;-70
2022/06/30 09:44:39;;;;;;;5.25;4.85;;;25.90;99.90;;;;;;5031717;28;20227;-70
2022/06/30 09:47:08;;;;;;;5.13;4.72;;;26.00;99.90;;;;;;5028727;28;20209;-70
2022/06/30 09:49:37;;;;;;;7.03;5.03;;;25.90;99.90;;;;;;5028925;28;20201;-70
2022/06/30 09:52:14;;;;;;;5.45;4.43;;;26.00;99.90;;;;;;5028445;28;20218;-70
2022/06/30 09:54:53;;;;;;;5.70;5.13;;;26.10;99.90;;;;;;5035108;28;20207;-70
2022/06/30 09:57:20;;;;;;;5.70;5.15;;;26.20;99.90;;;;;;5048316;28;20736;-70
2022/06/30 09:59:47;;;;;;;7.57;5.28;;;26.40;99.90;;;;;;5045106;28;20656;-72
2022/06/30 10:02:14;;;;;;;5.45;5.00;;;26.40;99.90;;;;;;5028335;28;20240;-70
2022/06/30 10:04:55;;;;;;;4.93;4.63;;;26.50;99.90;;;;;;5028326;28;20970;-70
2022/06/30 10:07:23;;;;;;;6.00;5.03;;;26.60;99.90;;;;;;5031322;28;20211;-70
2022/06/30 10:09:51;;;;;;;13.55;5.22;;;26.60;99.90;;;;;;5048054;28;20204;-70
2022/06/30 10:12:19;;;;;;;21.48;5.68;;;26.60;99.90;;;;;;5048096;28;20216;-70
2022/06/30 10:14:48;;;;;;;5.18;4.78;;;26.70;99.90;;;;;;5048287;28;20212;-70
2022/06/30 10:17:18;;;;;;;4.88;4.55;;;26.70;99.90;;;;;;5048286;28;20228;-70
2022/06/30 10:19:45;;;;;;;4.90;4.60;;;26.80;99.90;;;;;;5048268;28;20275;-70
2022/06/30 10:22:15;;;;;;;4.90;4.50;;;26.80;99.90;;;;;;5047689;28;20239;-70
2022/06/30 10:24:42;;;;;;;4.95;4.55;;;26.90;99.90;;;;;;5047847;28;20207;-70
2022/06/30 10:27:13;;;;;;;5.20;4.70;;;27.00;99.90;;;;;;5048244;28;20215;-70
2022/06/30 10:29:45;;;;;;;4.90;4.45;;;27.10;99.90;;;;;;5047458;28;20228;-70
2022/06/30 10:32:21;;;;;;;5.20;4.72;;;27.10;99.90;;;;;;5047858;28;20215;-70
2022/06/30 10:34:58;;;;;;;5.07;4.57;;;27.10;99.90;;;;;;5047570;28;20261;-70
2022/06/30 10:37:34;;;;;;;4.57;4.28;;;27.10;99.90;;;;;;5036678;28;20209;-70
2022/06/30 10:40:07;;;;;;;5.00;4.55;;;27.30;99.90;;;;;;5027822;28;20203;-70
2022/06/30 10:42:47;;;;;;;5.88;4.70;;;27.40;99.90;;;;;;5027460;28;20591;-70
2022/06/30 10:45:57;;;;;;;4.95;4.53;;;27.60;99.90;;;;;;5027722;28;20713;-70
2022/06/30 10:48:27;;;;;;;4.75;4.35;;;27.60;99.90;;;;;;5016988;28;20212;-70
2022/06/30 10:50:54;;;;;;;7.28;5.20;;;27.70;99.90;;;;;;5026862;28;20216;-70
2022/06/30 10:53:55;;;;;;;4.78;4.47;;;27.60;99.90;;;;;;5027533;28;20219;-70
2022/06/30 10:56:23;;;;;;;8.32;4.60;;;27.50;99.90;;;;;;5030682;28;20223;-70
2022/06/30 10:59:11;;;;;;;4.85;4.38;;;27.60;99.90;;;;;;5027210;28;20586;-70
2022/06/30 11:01:39;;;;;;;5.50;5.00;;;27.60;99.90;;;;;;5022732;28;20228;-70
2022/06/30 11:04:10;;;;;;;6.07;4.30;;;27.60;99.90;;;;;;5033750;28;20686;-70
2022/06/30 11:07:01;;;;;;;4.88;4.55;;;27.60;99.90;;;;;;5026890;28;20686;-70
2022/06/30 11:10:00;;;;;;;17.45;4.97;;;27.60;99.90;;;;;;5027383;28;20188;-70
2022/06/30 11:12:59;;;;;;;5.55;4.90;;;27.50;99.90;;;;;;5042167;28;20207;-70
2022/06/30 11:15:54;;;;;;;14.35;5.45;;;27.50;99.90;;;;;;5005040;28;20227;-70
2022/06/30 11:18:23;;;;;;;5.45;4.90;;;27.60;99.90;;;;;;5049090;28;20238;-70
2022/06/30 11:20:51;;;;;;;5.93;4.43;;;27.70;99.90;;;;;;5031046;28;20235;-70
2022/06/30 11:23:19;;;;;;;5.50;4.68;;;27.90;99.90;;;;;;5031283;28;20255;-70
2022/06/30 11:28:34;;;;;;;5.18;4.22;;;28.40;99.90;;;;;;5030855;28;20250;-70
2022/06/30 11:31:00;;;;;;;4.60;4.30;;;28.60;99.90;;;;;;5049231;28;20243;-70
2022/06/30 11:33:27;;;;;;;5.75;4.00;;;28.90;99.90;;;;;;5050958;28;20593;-70
2022/06/30 11:36:09;;;;;;;4.63;4.10;;;29.00;99.90;;;;;;5050641;28;20211;-70
2022/06/30 11:38:37;;;;;;;4.70;4.30;;;29.20;99.90;;;;;;5051010;28;20211;-70
2022/06/30 11:43:53;;;;;;;9.55;4.95;;;29.30;99.40;;;;;;5050850;28;20717;-70
2022/06/30 11:46:20;;;;;;;5.35;4.82;;;29.30;99.20;;;;;;5050912;28;20670;-70
2022/06/30 11:48:48;;;;;;;4.40;4.10;;;29.40;99.10;;;;;;5030915;28;20212;-70
2022/06/30 11:51:15;;;;;;;9.48;4.57;;;29.60;99.00;;;;;;5030753;28;20212;-70
2022/06/30 11:53:43;;;;;;;5.40;4.45;;;29.80;99.10;;;;;;5049318;28;20212;-70
2022/06/30 11:56:09;;;;;;;4.60;4.30;;;29.70;98.90;;;;;;5050692;28;20204;-70
2022/06/30 11:58:36;;;;;;;4.75;4.40;;;29.80;98.50;;;;;;5050997;28;20218;-70
2022/06/30 12:01:15;;;;;;;4.80;4.40;;;29.80;98.10;;;;;;5050601;28;20635;-70
2022/06/30 12:03:43;;;;;;;7.90;5.22;;;29.60;98.80;;;;;;5050414;28;20247;-70
2022/06/30 12:06:12;;;;;;;4.72;4.40;;;29.60;98.70;;;;;;5049937;28;20208;-70
2022/06/30 12:08:40;;;;;;;6.22;4.35;;;29.70;98.80;;;;;;5050132;28;20212;-70
2022/06/30 12:11:07;;;;;;;4.63;4.32;;;29.90;98.40;;;;;;5050378;28;20560;-70
2022/06/30 12:13:34;;;;;;;4.63;4.38;;;30.10;97.90;;;;;;5049918;28;20216;-70
2022/06/30 12:16:06;;;;;;;5.47;4.20;;;30.20;97.50;;;;;;5037222;28;20207;-71
2022/06/30 12:18:34;;;;;;;4.90;4.47;;;30.40;97.60;;;;;;5030084;28;20207;-70
2022/06/30 12:21:01;;;;;;;5.75;5.00;;;30.50;97.80;;;;;;5030240;28;20215;-70
2022/06/30 12:23:28;;;;;;;5.75;5.20;;;30.30;97.60;;;;;;5029802;28;20236;-70
2022/06/30 12:25:56;;;;;;;23.17;6.18;;;30.00;97.90;;;;;;5030134;28;20209;-70
2022/06/30 12:28:25;;;;;;;5.40;4.93;;;29.80;98.10;;;;;;5028983;28;20295;-70
2022/06/30 12:30:53;;;;;;;5.50;4.78;;;29.60;98.30;;;;;;5048298;28;20242;-70
2022/06/30 12:33:22;;;;;;;5.35;4.85;;;29.60;98.50;;;;;;5049908;28;20219;-70
2022/06/30 12:35:50;;;;;;;25.40;6.00;;;29.80;98.70;;;;;;5049331;28;20208;-70
2022/06/30 12:38:20;;;;;;;5.55;5.15;;;30.00;98.00;;;;;;5049824;28;20204;-70
2022/06/30 12:40:48;;;;;;;7.68;4.90;;;30.10;98.20;;;;;;5049763;28;20547;-70
2022/06/30 12:43:16;;;;;;;10.60;5.28;;;30.50;98.10;;;;;;5044325;28;20228;-70
2022/06/30 12:45:52;;;;;;;5.13;4.82;;;30.60;97.60;;;;;;5029635;28;20204;-70
2022/06/30 12:48:41;;;;;;;5.35;4.80;;;30.80;97.60;;;;;;5030780;28;20552;-70
2022/06/30 12:51:11;;;;;;;4.90;4.55;;;31.00;97.60;;;;;;5049260;28;20188;-70
2022/06/30 12:53:39;;;;;;;6.13;5.25;;;31.00;97.00;;;;;;5049461;28;20223;-71
2022/06/30 12:56:09;;;;;;;7.05;5.45;;;31.20;96.70;;;;;;5049271;28;20208;-70
2022/06/30 12:58:51;;;;;;;7.25;5.40;;;31.50;96.30;;;;;;5049422;28;20615;-71
2022/06/30 13:01:20;;;;;;;5.60;5.00;;;31.60;96.40;;;;;;5049517;28;20196;-70
2022/06/30 13:03:56;;;;;;;5.30;4.90;;;31.60;96.20;;;;;;5049007;28;20236;-70
2022/06/30 13:06:25;;;;;;;12.30;7.55;;;31.60;96.40;;;;;;5048943;28;20241;-70
2022/06/30 13:08:52;;;;;;;6.28;5.72;;;31.50;96.20;;;;;;5049281;28;20235;-70
2022/06/30 13:11:23;;;;;;;7.28;6.68;;;31.20;95.80;;;;;;5049334;28;20210;-70